createdAt,value
2022-08-23T00:04:34.937Z,4.93
2022-08-23T00:09:29.939Z,4.35
2022-08-23T00:14:28.373Z,5.72
2022-08-23T00:19:24.014Z,3.55
2022-08-23T00:24:18.100Z,3.92
2022-08-23T00:29:13.077Z,3.80
2022-08-23T00:34:06.387Z,4.10
2022-08-23T00:38:59.885Z,4.28
2022-08-23T00:44:11.732Z,4.30
2022-08-23T00:49:08.151Z,4.10
2022-08-23T00:54:02.546Z,3.42
2022-08-23T00:58:56.782Z,3.25
2022-08-23T01:04:00.812Z,2.40
2022-08-23T01:09:03.477Z,2.30
2022-08-23T01:13:59.763Z,2.10
2022-08-23T01:18:55.576Z,4.20
2022-08-23T01:24:10.994Z,2.78
2022-08-23T01:29:12.374Z,2.30
2022-08-23T01:34:09.331Z,1.88
2022-08-23T01:39:04.213Z,1.80
2022-08-23T01:43:59.323Z,1.52
2022-08-23T01:48:56.188Z,1.73
2022-08-23T01:53:51.847Z,1.70
2022-08-23T01:58:48.370Z,2.00
2022-08-23T02:03:41.944Z,1.98
2022-08-23T02:08:53.394Z,1.60
2022-08-23T02:13:51.535Z,1.90
2022-08-23T02:18:46.195Z,1.88
2022-08-23T02:23:39.032Z,3.78
2022-08-23T02:28:33.017Z,3.47
2022-08-23T02:33:27.150Z,3.08
2022-08-23T02:38:20.896Z,3.85
2022-08-23T02:43:15.803Z,4.95
2022-08-23T02:48:09.627Z,4.50
2022-08-23T02:53:16.673Z,3.78
2022-08-23T02:58:11.005Z,4.18
2022-08-23T03:03:05.087Z,4.20
2022-08-23T03:07:59.631Z,3.80
2022-08-23T03:12:57.402Z,3.50
2022-08-23T03:17:52.318Z,3.47
2022-08-23T03:22:48.241Z,3.85
2022-08-23T03:27:47.900Z,3.45
2022-08-23T03:32:41.621Z,3.30
2022-08-23T03:37:43.237Z,3.58
2022-08-23T03:42:38.164Z,3.03
2022-08-23T03:47:31.125Z,3.72
2022-08-23T03:52:24.565Z,3.08
2022-08-23T03:57:18.260Z,2.88
2022-08-23T04:02:11.874Z,3.65
2022-08-23T04:07:06.168Z,2.50
2022-08-23T04:12:00.660Z,2.10
2022-08-23T04:16:55.742Z,1.73
2022-08-23T04:21:51.475Z,1.80
2022-08-23T04:26:54.587Z,1.92
2022-08-23T04:31:49.113Z,2.25
2022-08-23T04:36:44.848Z,2.75
2022-08-23T04:42:04.410Z,3.25
2022-08-23T04:46:58.327Z,3.67
2022-08-23T04:51:53.012Z,2.78
2022-08-23T04:56:51.683Z,2.50
2022-08-23T05:01:48.212Z,2.95
2022-08-23T05:06:42.356Z,2.75
2022-08-23T05:11:36.082Z,2.22
2022-08-23T05:16:30.133Z,2.53
2022-08-23T05:21:29.420Z,3.92
2022-08-23T05:26:22.451Z,4.05
2022-08-23T05:31:20.279Z,3.20
2022-08-23T05:36:19.514Z,2.80
2022-08-23T05:41:12.875Z,2.40
2022-08-23T05:46:12.817Z,2.65
2022-08-23T05:51:18.547Z,2.80
2022-08-23T05:56:24.253Z,2.20
2022-08-23T06:01:18.551Z,2.47
2022-08-23T06:06:13.812Z,3.45
2022-08-23T06:11:11.192Z,2.63
2022-08-23T06:16:14.453Z,3.10
2022-08-23T06:21:11.319Z,3.35
2022-08-23T11:29:25.069Z,1.45
2022-08-23T11:35:07.214Z,1.25
2022-08-23T11:40:13.611Z,1.25
2022-08-23T11:45:36.880Z,1.45
2022-08-23T11:50:55.920Z,1.23
2022-08-23T11:56:15.870Z,0.98
2022-08-23T12:01:16.597Z,1.10
2022-08-23T12:06:21.588Z,1.02
2022-08-23T12:11:19.153Z,1.10
2022-08-23T12:16:17.766Z,0.70
2022-08-23T12:21:54.666Z,1.00
2022-08-23T12:27:23.372Z,1.00
2022-08-23T12:33:06.960Z,0.65
2022-08-23T12:38:33.843Z,1.10
2022-08-23T12:43:31.342Z,1.17
2022-08-23T12:48:30.326Z,0.90
2022-08-23T12:53:44.551Z,0.93
2022-08-23T12:58:40.363Z,0.90
2022-08-23T13:03:40.835Z,0.70
2022-08-23T13:09:14.414Z,1.67
2022-08-23T13:14:55.886Z,0.90
2022-08-23T13:20:13.806Z,0.77
2022-08-23T13:25:29.707Z,0.82
2022-08-23T13:30:36.288Z,1.10
2022-08-23T13:35:53.169Z,0.70
2022-08-23T13:40:52.176Z,0.77
2022-08-23T13:45:51.742Z,0.80
2022-08-23T13:50:46.464Z,1.08
2022-08-23T13:55:55.748Z,0.90
2022-08-23T14:00:55.373Z,0.70
2022-08-23T14:05:50.133Z,1.83
2022-08-23T14:10:43.773Z,0.77
2022-08-23T14:20:51.636Z,1.00
2022-08-23T14:25:47.237Z,1.40
2022-08-23T14:35:35.689Z,0.70
2022-08-23T14:40:30.007Z,1.02
2022-08-23T14:45:24.403Z,0.85
2022-08-23T14:50:18.449Z,0.80
2022-08-23T14:55:13.046Z,0.73
2022-08-23T15:00:14.752Z,0.60
2022-08-23T15:05:10.481Z,0.80
2022-08-23T15:10:05.333Z,0.60
2022-08-23T15:14:58.901Z,1.10
2022-08-23T15:19:52.403Z,0.73
2022-08-23T15:24:46.786Z,0.50
2022-08-23T15:29:40.282Z,0.65
2022-08-23T15:34:35.334Z,1.30
2022-08-23T15:39:33.502Z,0.90
2022-08-23T15:44:27.668Z,0.90
2022-08-23T15:49:21.846Z,0.90
2022-08-23T15:54:17.534Z,0.77
2022-08-23T15:59:15.955Z,0.77
2022-08-23T16:04:09.940Z,0.80
2022-08-23T16:09:05.059Z,0.70
2022-08-23T16:13:59.251Z,1.00
2022-08-23T16:18:55.963Z,1.77
2022-08-23T16:23:51.446Z,0.98
2022-08-23T16:28:45.174Z,0.80
2022-08-23T16:33:39.604Z,0.77
2022-08-23T16:38:33.685Z,0.90
2022-08-23T16:43:27.508Z,0.80
2022-08-23T16:48:21.755Z,1.08
2022-08-23T16:53:16.025Z,0.85
2022-08-23T16:58:09.462Z,1.02
2022-08-23T17:03:03.005Z,0.85
2022-08-23T17:07:57.998Z,0.82
2022-08-23T17:12:54.917Z,1.10
2022-08-23T17:17:48.557Z,1.00
2022-08-23T17:22:43.916Z,1.10
2022-08-23T17:27:44.265Z,1.90
2022-08-23T17:32:40.299Z,0.98
2022-08-23T17:37:34.224Z,0.90
2022-08-23T17:42:28.048Z,0.95
2022-08-23T17:47:21.638Z,0.80
2022-08-23T17:52:16.308Z,1.15
2022-08-23T17:57:11.093Z,1.30
2022-08-23T18:02:05.112Z,0.88
2022-08-23T18:07:00.279Z,0.90
2022-08-23T18:11:54.005Z,1.10
2022-08-23T18:16:48.347Z,1.30
2022-08-23T18:21:44.122Z,0.93
2022-08-23T18:26:57.334Z,1.13
2022-08-23T18:31:52.222Z,1.42
2022-08-23T18:36:48.051Z,1.20
2022-08-23T18:41:42.170Z,1.35
2022-08-23T18:46:38.074Z,1.33
2022-08-23T18:51:31.910Z,1.35
2022-08-23T18:56:26.646Z,1.20
2022-08-23T19:01:28.673Z,0.90
2022-08-23T19:06:21.781Z,1.13
2022-08-23T19:11:16.426Z,2.70
2022-08-23T19:16:14.005Z,1.08
2022-08-23T19:21:08.088Z,1.42
2022-08-23T19:26:01.945Z,1.42
2022-08-23T19:30:55.938Z,1.02
2022-08-23T19:35:50.551Z,1.40
2022-08-23T19:40:45.497Z,1.20
2022-08-23T19:45:40.233Z,1.77
2022-08-23T19:50:34.234Z,1.17
2022-08-23T19:55:28.302Z,1.10
2022-08-23T20:00:23.174Z,2.55
2022-08-23T20:05:18.359Z,1.70
2022-08-23T20:10:13.384Z,1.50
2022-08-23T20:15:11.027Z,1.45
2022-08-23T20:20:06.391Z,2.00
2022-08-23T20:25:00.162Z,2.03
2022-08-23T20:29:58.127Z,1.73
2022-08-23T20:34:52.304Z,1.88
2022-08-23T20:39:47.269Z,1.58
2022-08-23T20:44:41.589Z,1.55
2022-08-23T20:49:35.155Z,1.70
2022-08-23T20:54:28.921Z,1.60
2022-08-23T20:59:22.870Z,1.48
2022-08-23T21:04:17.497Z,1.10
2022-08-23T21:09:13.251Z,1.30
2022-08-23T21:14:06.483Z,1.42
2022-08-23T21:19:00.469Z,1.88
2022-08-23T21:23:56.055Z,1.30
2022-08-23T21:28:49.822Z,1.95
2022-08-23T21:33:42.256Z,1.40
2022-08-23T21:38:36.214Z,1.42
2022-08-23T21:43:31.273Z,1.35
2022-08-23T21:48:25.053Z,1.40
2022-08-23T21:53:19.863Z,1.25
2022-08-23T21:58:14.489Z,1.30
2022-08-23T22:03:07.477Z,4.85
2022-08-23T22:08:02.099Z,1.92
2022-08-23T22:12:56.110Z,1.38
2022-08-23T22:17:50.649Z,1.70
2022-08-23T22:22:44.471Z,1.38
2022-08-23T22:27:38.738Z,1.63
2022-08-23T22:32:33.343Z,1.55
2022-08-23T22:37:27.477Z,1.50
2022-08-23T22:42:21.398Z,1.73
2022-08-23T22:47:16.085Z,1.83
2022-08-23T22:52:10.828Z,1.65
2022-08-23T22:57:03.800Z,1.63
2022-08-23T23:01:58.501Z,1.77
2022-08-23T23:06:53.620Z,1.38
2022-08-23T23:11:47.662Z,1.50
2022-08-23T23:16:43.287Z,1.25
2022-08-23T23:21:39.478Z,1.75
2022-08-23T23:26:33.622Z,1.30
2022-08-23T23:31:27.661Z,1.08
2022-08-23T23:36:21.909Z,1.50
2022-08-23T23:41:16.179Z,1.27
2022-08-23T23:46:11.274Z,1.20
2022-08-23T23:51:14.013Z,1.38
2022-08-23T23:56:11.507Z,1.00
